Time;durP1;ratioP1;P1;durP2;ratioP2;P2;SDS_P1;SDS_P2;PMS_P1;PMS_P2;Temp;Humidity;BMP_temperature;BMP_pressure;BME280_temperature;BME280_humidity;BME280_pressure;Samples;Min_cycle;Max_cycle;Signal;HPM_P1;HPM_P2
2023/01/21 00:02:00;;;;;;;;;8.60;8.40;;;;;4.97;71.24;101459.31;5062108;28;45472;-61
2023/01/21 00:04:26;;;;;;;;;9.00;7.50;;;;;5.04;71.32;101475.00;5051507;28;45512;-61
2023/01/21 00:06:51;;;;;;;;;9.00;7.75;;;;;5.11;71.23;101474.22;5042083;28;45491;-61
2023/01/21 00:09:17;;;;;;;;;7.50;4.75;;;;;4.87;71.62;101443.06;5052129;28;45698;-61
2023/01/21 00:11:42;;;;;;;;;9.50;7.50;;;;;5.13;70.70;101471.34;5052052;28;45638;-61
2023/01/21 00:14:08;;;;;;;;;5.50;5.50;;;;;5.14;71.41;101478.50;5058615;28;45607;-62
2023/01/21 00:16:33;;;;;;;;;8.00;5.50;;;;;5.17;71.63;101472.72;5072324;28;45685;-61
2023/01/21 00:18:59;;;;;;;;;11.50;9.75;;;;;4.98;71.10;101447.44;5072787;28;45392;-61
2023/01/21 00:21:24;;;;;;;;;7.25;7.00;;;;;4.41;71.15;101350.72;5072858;28;45741;-62
2023/01/21 00:23:50;;;;;;;;;6.25;5.00;;;;;5.13;72.01;101468.63;5071095;28;46442;-61
2023/01/21 00:26:15;;;;;;;;;6.00;6.00;;;;;5.18;71.71;101477.16;5050843;28;45669;-61
2023/01/21 00:28:42;;;;;;;;;8.00;4.25;;;;;4.79;71.36;101420.41;5052197;28;45308;-61
2023/01/21 00:31:08;;;;;;;;;6.80;6.20;;;;;5.15;71.58;101474.75;5034071;28;45662;-61
2023/01/21 00:33:34;;;;;;;;;5.80;5.00;;;;;5.12;70.83;101470.47;5050210;28;45504;-61
2023/01/21 00:36:00;;;;;;;;;9.25;9.00;;;;;5.16;72.32;101473.75;5051921;28;45909;-61
2023/01/21 00:38:26;;;;;;;;;10.00;9.80;;;;;5.24;71.02;101490.13;5050592;28;45513;-59
2023/01/21 00:40:52;;;;;;;;;8.25;5.50;;;;;5.25;71.45;101489.13;5052032;28;45637;-60
2023/01/21 00:43:17;;;;;;;;;6.00;6.00;;;;;5.26;70.80;101498.16;5033594;28;46535;-61
2023/01/21 00:45:43;;;;;;;;;8.50;6.00;;;;;5.21;71.35;101495.03;5051096;28;45431;-61
2023/01/21 00:48:08;;;;;;;;;4.50;4.50;;;;;5.23;71.65;101496.59;5017169;28;45497;-62
2023/01/21 00:50:34;;;;;;;;;9.50;9.50;;;;;5.24;71.85;101503.72;5032786;28;45468;-61
2023/01/21 00:52:59;;;;;;;;;14.75;8.00;;;;;5.07;71.30;101483.69;5033790;28;46209;-61
2023/01/21 00:55:25;;;;;;;;;8.75;5.75;;;;;4.98;72.26;101471.06;5042096;28;45671;-62
2023/01/21 00:57:51;;;;;;;;;5.25;4.75;;;;;5.07;71.63;101480.97;5036895;28;45454;-62
2023/01/21 01:00:18;;;;;;;;;6.60;5.40;;;;;5.20;71.29;101509.66;5016555;28;45414;-63
2023/01/21 01:02:43;;;;;;;;;9.20;8.00;;;;;5.25;71.66;101524.53;5071901;27;46679;-61
2023/01/21 01:05:13;;;;;;;;;5.50;5.50;;;;;5.20;71.70;101515.09;5033152;28;45430;-62
2023/01/21 01:07:41;;;;;;;;;6.80;6.80;;;;;5.26;71.39;101522.63;5032430;28;45731;-62
2023/01/21 01:10:07;;;;;;;;;7.60;7.60;;;;;5.10;71.30;101509.75;5031750;28;45399;-62
2023/01/21 01:12:33;;;;;;;;;8.60;6.40;;;;;5.20;71.82;101515.09;5030869;28;46434;-61
2023/01/21 01:14:58;;;;;;;;;5.75;5.75;;;;;5.15;72.05;101521.03;5035957;28;45363;-62
2023/01/21 01:17:24;;;;;;;;;7.50;5.75;;;;;5.20;72.17;101523.28;5031116;28;45625;-62
2023/01/21 01:19:49;;;;;;;;;7.00;7.00;;;;;5.21;71.45;101522.25;5031392;28;45399;-61
2023/01/21 01:22:14;;;;;;;;;4.50;4.50;;;;;4.72;71.30;101459.09;5031131;28;46361;-62
2023/01/21 01:24:40;;;;;;;;;6.00;6.00;;;;;5.19;71.37;101530.59;5048556;28;45481;-61
2023/01/21 01:27:06;;;;;;;;;5.00;5.00;;;;;5.21;71.21;101542.16;5037195;28;45481;-60
2023/01/21 01:29:31;;;;;;;;;5.00;4.50;;;;;5.20;71.82;101539.59;5016850;28;45586;-60
2023/01/21 01:31:56;;;;;;;;;8.75;7.50;;;;;5.24;70.87;101546.44;5033733;28;45700;-60
2023/01/21 01:34:22;;;;;;;;;9.00;8.50;;;;;5.23;71.61;101545.59;5033531;28;45744;-59
2023/01/21 01:36:48;;;;;;;;;9.50;9.50;;;;;5.19;70.69;101552.38;5033938;28;45417;-60
2023/01/21 01:39:13;;;;;;;;;15.00;11.00;;;;;5.16;71.12;101560.81;5017621;28;45386;-60
2023/01/21 01:41:39;;;;;;;;;12.25;9.00;;;;;5.01;71.26;101530.59;5035074;28;45478;-60
2023/01/21 01:44:05;;;;;;;;;14.50;10.50;;;;;5.21;70.20;101572.13;5033484;28;45393;-60
2023/01/21 01:46:35;;;;;;;;;11.00;10.00;;;;;5.18;70.53;101561.53;5035038;28;45355;-60
2023/01/21 01:49:18;;;;;;;;;12.40;12.40;;;;;5.01;69.65;101536.88;5017060;28;45885;-60
2023/01/21 01:51:43;;;;;;;;;11.20;9.20;;;;;5.15;69.38;101579.03;5034611;28;46320;-60
2023/01/21 01:54:09;;;;;;;;;13.75;12.75;;;;;5.13;68.45;101580.22;5033160;28;45372;-59
2023/01/21 01:56:35;;;;;;;;;12.50;10.50;;;;;5.13;67.91;101583.75;5033392;28;45468;-60
2023/01/21 01:59:00;;;;;;;;;13.75;12.50;;;;;4.94;68.67;101551.25;5016768;28;45556;-59
2023/01/21 02:01:26;;;;;;;;;13.50;12.00;;;;;5.13;68.65;101580.22;5019799;28;45430;-60
2023/01/21 02:03:58;;;;;;;;;16.75;15.25;;;;;5.00;68.40;101583.28;5016669;28;45904;-59
2023/01/21 02:06:23;;;;;;;;;13.00;13.00;;;;;5.13;67.84;101591.94;5032195;28;45389;-60
2023/01/21 02:08:49;;;;;;;;;20.00;13.50;;;;;5.05;67.56;101575.53;5034644;28;45716;-60
2023/01/21 02:11:16;;;;;;;;;17.50;14.75;;;;;4.99;66.79;101581.59;5049728;28;45429;-60
2023/01/21 02:13:44;;;;;;;;;12.80;10.00;;;;;4.82;66.98;101556.09;5019838;28;45460;-59
2023/01/21 02:16:16;;;;;;;;;16.40;12.20;;;;;4.93;66.35;101574.91;5020291;28;45431;-60
2023/01/21 02:18:50;;;;;;;;;14.40;12.20;;;;;5.16;67.17;101609.81;5038120;28;45409;-59
2023/01/21 02:21:23;;;;;;;;;16.20;15.80;;;;;5.12;66.21;101612.00;5037461;28;45512;-59
2023/01/21 02:24:07;;;;;;;;;10.40;10.40;;;;;5.19;66.70;101614.97;5036396;28;45436;-59
2023/01/21 02:26:40;;;;;;;;;15.60;15.00;;;;;5.22;66.39;101624.69;5037731;28;45295;-60
2023/01/21 02:29:32;;;;;;;;;13.40;13.20;;;;;5.17;66.33;101640.63;5053214;28;45335;-60
2023/01/21 02:32:14;;;;;;;;;13.60;12.60;;;;;4.59;66.90;101535.63;5035935;28;48379;-60
2023/01/21 02:35:04;;;;;;;;;12.20;12.20;;;;;5.19;65.96;101660.38;5070221;28;45464;-60
2023/01/21 02:37:53;;;;;;;;;11.60;10.00;;;;;5.04;64.14;101652.75;5038595;28;45350;-59
2023/01/21 02:40:19;;;;;;;;;13.60;9.20;;;;;4.98;64.37;101667.81;5052581;28;45446;-59
2023/01/21 02:42:46;;;;;;;;;7.00;7.00;;;;;5.00;64.14;101673.97;5037527;28;45447;-58
2023/01/21 02:45:28;;;;;;;;;10.40;8.60;;;;;4.94;64.33;101674.56;5052664;28;45484;-60
2023/01/21 02:48:19;;;;;;;;;12.00;9.60;;;;;4.92;64.36;101694.75;5052540;28;45422;-59
2023/01/21 02:50:49;;;;;;;;;10.80;9.00;;;;;4.81;63.96;101684.94;5030825;28;45558;-59
2023/01/21 02:53:34;;;;;;;;;10.80;10.80;;;;;4.75;63.14;101700.84;5035953;28;46116;-60
2023/01/21 02:56:04;;;;;;;;;14.40;13.00;;;;;4.44;64.34;101667.63;5037636;28;45459;-59
2023/01/21 02:58:32;;;;;;;;;10.40;8.60;;;;;4.61;64.39;101721.22;5052279;28;45333;-59
2023/01/21 03:01:31;;;;;;;;;5.80;5.80;;;;;4.45;64.03;101710.13;5036465;28;45299;-59
2023/01/21 03:04:26;;;;;;;;;16.20;12.60;;;;;4.41;63.81;101734.03;5051210;28;45354;-59
2023/01/21 03:06:58;;;;;;;;;13.40;13.40;;;;;4.37;63.80;101738.03;5023643;28;45445;-59
2023/01/21 03:09:28;;;;;;;;;15.60;13.80;;;;;4.28;63.72;101737.03;5019295;28;45357;-59
2023/01/21 03:11:59;;;;;;;;;15.00;12.40;;;;;4.34;63.85;101736.47;5019608;28;45894;-59
2023/01/21 03:17:40;;;;;;;;;16.20;15.20;;;;;4.38;64.12;101742.47;5035695;28;45390;-60
2023/01/21 03:20:26;;;;;;;;;16.60;12.80;;;;;4.31;63.63;101746.78;5037244;28;45466;-60
2023/01/21 03:23:01;;;;;;;;;17.00;16.20;;;;;4.05;63.79;101707.50;5018611;28;45572;-60
2023/01/21 03:25:26;;;;;;;;;22.80;16.60;;;;;4.18;64.36;101744.38;5021585;28;46693;-60
2023/01/21 03:27:52;;;;;;;;;20.25;17.50;;;;;4.25;63.42;101753.66;5018874;28;46242;-60
2023/01/21 03:30:19;;;;;;;;;19.00;16.50;;;;;4.07;62.86;101754.38;5052265;28;45472;-60
2023/01/21 03:32:47;;;;;;;;;17.60;12.80;;;;;3.90;62.46;101739.66;5052084;28;45445;-59
2023/01/21 03:35:15;;;;;;;;;19.00;15.80;;;;;4.04;61.25;101770.13;5035280;28;46201;-60
2023/01/21 03:37:51;;;;;;;;;16.00;15.00;;;;;3.97;61.88;101779.84;5035453;28;45390;-61
2023/01/21 03:40:22;;;;;;;;;14.20;12.00;;;;;3.97;61.36;101788.88;5036649;28;45440;-59
2023/01/21 03:42:52;;;;;;;;;15.20;15.20;;;;;3.96;61.22;101794.44;5052432;28;45236;-60
2023/01/21 03:45:45;;;;;;;;;17.00;14.60;;;;;3.85;60.14;101779.13;5067455;28;47767;-60
2023/01/21 03:48:27;;;;;;;;;15.40;13.80;;;;;3.80;59.95;101799.41;5049260;28;45758;-59
2023/01/21 03:50:55;;;;;;;;;20.40;17.80;;;;;3.57;60.70;101757.25;5051310;28;45377;-61
2023/01/21 03:53:21;;;;;;;;;21.80;20.40;;;;;3.63;60.84;101770.25;5052160;28;45761;-61
2023/01/21 03:55:49;;;;;;;;;17.50;16.25;;;;;3.82;61.25;101807.44;5051585;28;45475;-60
2023/01/21 03:58:15;;;;;;;;;17.60;15.20;;;;;3.84;61.43;101801.88;5036314;28;45334;-60
2023/01/21 04:00:41;;;;;;;;;18.50;17.25;;;;;3.89;60.73;101783.28;5051695;28;45373;-60
2023/01/21 04:03:06;;;;;;;;;19.25;15.75;;;;;3.88;60.35;101785.13;5035528;28;45212;-60
2023/01/21 04:05:32;;;;;;;;;19.75;16.25;;;;;3.88;60.20;101796.00;5034777;28;46384;-60
2023/01/21 04:07:57;;;;;;;;;18.50;12.00;;;;;3.87;60.77;101801.56;5035989;28;45322;-60
2023/01/21 04:10:23;;;;;;;;;15.75;13.00;;;;;3.85;60.91;101793.53;5034733;28;45267;-60
2023/01/21 04:12:48;;;;;;;;;18.75;15.00;;;;;3.68;60.72;101769.81;5036292;28;45224;-59
2023/01/21 04:15:14;;;;;;;;;22.75;15.75;;;;;3.90;60.19;101806.72;5035693;28;47799;-59
2023/01/21 04:17:39;;;;;;;;;21.50;18.75;;;;;3.78;61.74;101790.56;5036333;28;45279;-60
2023/01/21 04:20:06;;;;;;;;;22.75;22.00;;;;;3.78;60.53;101816.84;5017830;28;45464;-62
2023/01/21 04:22:31;;;;;;;;;22.60;19.60;;;;;3.74;61.06;101810.00;5034947;28;45527;-59
2023/01/21 04:24:57;;;;;;;;;18.75;17.25;;;;;3.72;60.94;101821.00;5051158;28;46521;-60
2023/01/21 04:27:22;;;;;;;;;22.50;19.00;;;;;3.66;60.70;101824.25;5035959;28;45413;-60
2023/01/21 04:29:47;;;;;;;;;19.00;16.75;;;;;3.66;61.71;101827.84;5036084;28;45838;-59
2023/01/21 04:32:13;;;;;;;;;22.50;20.75;;;;;3.59;61.21;101831.25;5018031;28;45432;-60
2023/01/21 04:34:38;;;;;;;;;28.25;22.00;;;;;3.63;60.95;101836.25;5033442;28;45737;-60
2023/01/21 04:37:04;;;;;;;;;24.00;19.75;;;;;3.63;61.18;101833.53;5035510;28;45441;-59
2023/01/21 04:39:29;;;;;;;;;20.75;19.25;;;;;3.53;61.33;101829.97;5036203;28;45415;-59
2023/01/21 04:41:58;;;;;;;;;22.25;19.75;;;;;3.55;61.11;101837.94;5034876;28;45399;-60
2023/01/21 04:44:23;;;;;;;;;18.20;18.20;;;;;3.46;60.55;101832.34;5017511;28;47476;-60
2023/01/21 04:46:49;;;;;;;;;17.00;17.00;;;;;3.45;61.42;101833.34;5035563;28;45421;-60
2023/01/21 04:49:14;;;;;;;;;28.50;24.75;;;;;3.45;61.40;101830.66;5035424;28;45463;-60
2023/01/21 04:51:40;;;;;;;;;20.00;16.50;;;;;3.53;61.63;101835.41;5035610;28;45388;-60
2023/01/21 04:54:05;;;;;;;;;24.25;22.25;;;;;3.54;60.79;101834.38;5035695;28;45504;-59
2023/01/21 04:56:31;;;;;;;;;16.75;13.50;;;;;3.41;60.81;101831.91;5034060;28;45480;-60
2023/01/21 04:58:56;;;;;;;;;23.50;20.50;;;;;3.44;61.64;101845.22;5017931;28;45426;-59
2023/01/21 05:01:22;;;;;;;;;19.25;18.00;;;;;3.43;61.19;101846.22;5017312;28;45900;-60
2023/01/21 05:03:47;;;;;;;;;20.50;19.25;;;;;3.47;61.53;101838.66;5035755;28;45515;-59
2023/01/21 05:06:13;;;;;;;;;20.50;17.00;;;;;3.43;61.35;101839.91;5050621;28;45514;-60
2023/01/21 05:08:38;;;;;;;;;27.50;20.75;;;;;3.45;61.33;101846.94;5035272;28;45375;-59
2023/01/21 05:11:07;;;;;;;;;21.75;19.00;;;;;3.45;61.50;101859.63;5017367;28;45322;-59
2023/01/21 05:13:32;;;;;;;;;20.00;17.20;;;;;3.51;61.63;101845.50;5035257;28;45627;-59
2023/01/21 05:16:07;;;;;;;;;26.75;21.50;;;;;3.42;61.08;101846.34;5017529;28;45303;-60
2023/01/21 05:18:32;;;;;;;;;23.60;21.80;;;;;3.34;60.62;101852.44;5013392;28;45762;-59
2023/01/21 05:20:58;;;;;;;;;19.25;17.25;;;;;3.29;61.49;101843.84;5035581;28;45382;-60
2023/01/21 05:23:23;;;;;;;;;23.00;18.75;;;;;3.35;61.81;101856.88;5050427;28;48017;-59
2023/01/21 05:25:49;;;;;;;;;22.25;19.25;;;;;3.37;61.64;101853.03;5035048;28;45407;-60
2023/01/21 05:28:14;;;;;;;;;23.50;20.50;;;;;3.34;61.41;101850.59;5000930;28;45392;-60
2023/01/21 05:30:40;;;;;;;;;25.75;20.00;;;;;3.25;61.28;101867.69;5017181;28;45479;-59
2023/01/21 05:33:05;;;;;;;;;15.50;15.50;;;;;3.20;61.51;101868.09;5035092;28;45481;-60
2023/01/21 05:35:33;;;;;;;;;30.50;22.25;;;;;3.08;62.09;101861.03;5016911;28;45565;-59
2023/01/21 05:37:59;;;;;;;;;28.60;19.60;;;;;2.94;61.78;101856.84;5017629;28;45385;-59
2023/01/21 05:40:24;;;;;;;;;29.75;23.25;;;;;2.87;62.39;101855.66;5035281;28;45392;-59
2023/01/21 05:42:49;;;;;;;;;20.50;20.00;;;;;2.68;62.26;101830.16;5033778;28;46516;-59
2023/01/21 05:45:15;;;;;;;;;22.50;22.50;;;;;2.84;62.22;101873.06;5034554;28;45611;-59
2023/01/21 05:47:41;;;;;;;;;21.75;20.50;;;;;2.80;62.30;101871.59;5035102;28;45216;-60
2023/01/21 05:50:07;;;;;;;;;27.25;21.00;;;;;2.89;62.87;101883.50;5035521;28;45344;-59
2023/01/21 05:52:32;;;;;;;;;22.80;22.00;;;;;2.85;62.68;101880.19;5016760;28;46144;-61
2023/01/21 05:54:58;;;;;;;;;28.75;24.50;;;;;2.78;62.99;101870.88;5035281;28;45364;-60
2023/01/21 05:57:23;;;;;;;;;25.00;19.50;;;;;2.78;63.51;101876.31;5033881;28;45369;-60
2023/01/21 05:59:49;;;;;;;;;29.25;27.00;;;;;2.95;63.09;101900.09;5050912;28;45579;-59
2023/01/21 06:02:14;;;;;;;;;25.25;25.00;;;;;2.95;63.63;101910.09;5017065;28;47979;-60
2023/01/21 06:04:40;;;;;;;;;27.00;26.75;;;;;2.93;63.62;101898.53;5034567;28;45423;-60
2023/01/21 06:07:05;;;;;;;;;32.25;26.50;;;;;2.94;63.58;101900.25;5035159;28;45393;-59
2023/01/21 06:09:31;;;;;;;;;27.75;25.50;;;;;2.52;63.90;101833.31;5034925;28;45387;-59
2023/01/21 06:11:56;;;;;;;;;29.00;25.50;;;;;2.90;64.12;101905.06;5016536;28;45935;-57
2023/01/21 06:14:22;;;;;;;;;32.25;28.50;;;;;2.88;64.05;101906.19;5034968;28;45412;-59
2023/01/21 06:16:47;;;;;;;;;26.75;23.25;;;;;2.64;64.13;101880.19;5049981;28;45398;-59
2023/01/21 06:19:13;;;;;;;;;29.00;26.25;;;;;2.79;64.55;101905.13;5010684;28;45394;-60
2023/01/21 06:21:38;;;;;;;;;31.50;29.25;;;;;2.11;64.39;101814.16;5025926;28;46227;-59
2023/01/21 06:24:04;;;;;;;;;24.50;22.75;;;;;2.70;63.94;101917.63;5034690;28;45803;-59
2023/01/21 06:26:30;;;;;;;;;29.00;23.25;;;;;2.69;64.17;101916.78;5034676;28;45320;-60
2023/01/21 06:28:56;;;;;;;;;24.25;20.75;;;;;2.72;63.83;101918.34;5034763;28;45387;-59
2023/01/21 06:31:22;;;;;;;;;31.40;25.00;;;;;2.32;64.47;101864.81;5016442;28;46584;-60
2023/01/21 06:33:47;;;;;;;;;25.00;20.60;;;;;2.50;64.49;101898.50;5034514;28;45302;-59
2023/01/21 06:36:12;;;;;;;;;29.00;23.00;;;;;2.68;64.61;101919.63;5034363;28;45245;-61
2023/01/21 06:38:38;;;;;;;;;27.25;25.25;;;;;2.73;64.50;101932.78;5034840;28;45575;-60
2023/01/21 06:41:04;;;;;;;;;34.50;30.25;;;;;2.68;64.37;101933.16;5034317;28;47076;-60
2023/01/21 06:43:29;;;;;;;;;35.75;29.50;;;;;2.55;65.08;101931.50;5016665;28;45437;-60
2023/01/21 06:45:55;;;;;;;;;36.75;27.75;;;;;2.55;65.18;101928.78;5015858;28;45295;-60
2023/01/21 06:48:20;;;;;;;;;40.50;31.25;;;;;2.43;64.70;101909.00;5033147;28;45436;-59
2023/01/21 06:50:46;;;;;;;;;29.75;29.75;;;;;2.48;65.04;101935.72;5033918;28;45343;-60
2023/01/21 06:53:11;;;;;;;;;35.75;25.50;;;;;2.43;65.20;101954.22;5016251;28;45368;-60
2023/01/21 06:55:37;;;;;;;;;31.75;23.25;;;;;2.53;65.32;101960.59;5016488;28;45456;-60
2023/01/21 06:58:02;;;;;;;;;36.00;28.75;;;;;2.61;65.14;101957.22;5035193;28;45358;-60
2023/01/21 07:00:28;;;;;;;;;33.25;26.00;;;;;2.67;65.10;101958.56;5037581;28;46541;-60
2023/01/21 07:02:57;;;;;;;;;34.75;32.50;;;;;2.76;64.69;101970.47;5037567;28;45426;-60
2023/01/21 07:05:22;;;;;;;;;33.60;30.60;;;;;2.40;64.62;101943.63;5002920;28;45427;-60
2023/01/21 07:07:48;;;;;;;;;31.25;26.50;;;;;2.58;65.02;101968.31;5036665;28;45393;-60
2023/01/21 07:10:13;;;;;;;;;38.50;30.75;;;;;2.64;65.30;101975.94;5018925;28;46284;-60
2023/01/21 07:12:39;;;;;;;;;38.00;32.50;;;;;2.67;65.11;101974.84;5019013;28;45438;-59
2023/01/21 07:15:05;;;;;;;;;35.25;29.00;;;;;2.71;65.17;101982.56;5037213;28;45196;-59
2023/01/21 07:17:31;;;;;;;;;38.50;31.00;;;;;2.71;65.17;102000.69;5037490;28;45545;-61
2023/01/21 07:19:57;;;;;;;;;39.00;32.80;;;;;2.71;64.81;101997.97;5037155;28;45549;-60
2023/01/21 07:22:22;;;;;;;;;36.50;31.75;;;;;2.71;65.21;102004.25;5018849;28;45382;-60
2023/01/21 07:24:48;;;;;;;;;31.25;27.75;;;;;2.69;64.98;102005.38;5036156;28;45427;-58
2023/01/21 07:27:13;;;;;;;;;39.75;33.00;;;;;2.69;65.23;102003.53;5036874;28;45672;-60
2023/01/21 07:29:39;;;;;;;;;35.00;29.75;;;;;2.67;64.82;102013.63;5035725;28;45464;-60
2023/01/21 07:32:04;;;;;;;;;39.00;37.25;;;;;2.68;65.45;102004.50;5036624;28;45531;-60
2023/01/21 07:34:30;;;;;;;;;38.75;32.00;;;;;2.78;65.17;102023.56;5035533;28;45367;-60
2023/01/21 07:36:56;;;;;;;;;42.00;33.75;;;;;2.55;65.27;101991.13;5036759;28;45651;-60
2023/01/21 07:39:21;;;;;;;;;43.75;36.00;;;;;2.78;65.29;102025.44;5068696;28;47553;-59
2023/01/21 07:41:47;;;;;;;;;47.75;39.25;;;;;2.73;64.92;102033.97;5018826;28;45322;-60
2023/01/21 07:44:12;;;;;;;;;45.00;36.25;;;;;2.48;65.41;102003.47;5052217;28;45398;-59
2023/01/21 07:46:38;;;;;;;;;50.00;38.25;;;;;2.70;65.30;102034.22;5035466;28;45551;-60
2023/01/21 07:49:03;;;;;;;;;39.25;33.25;;;;;2.67;65.08;102034.47;5035229;28;47114;-60
2023/01/21 07:51:29;;;;;;;;;42.75;33.00;;;;;2.49;65.33;102004.31;5035309;28;45409;-60
2023/01/21 07:53:55;;;;;;;;;42.75;37.50;;;;;2.70;65.07;102050.47;5036984;28;45316;-60
2023/01/21 07:56:21;;;;;;;;;43.50;34.50;;;;;2.70;65.59;102055.91;5035565;28;45463;-61
2023/01/21 07:58:46;;;;;;;;;43.00;35.25;;;;;2.76;65.14;102060.81;5036568;28;45508;-60
2023/01/21 08:01:12;;;;;;;;;37.75;28.50;;;;;2.79;65.08;102067.84;5036444;28;45488;-60
2023/01/21 08:03:38;;;;;;;;;39.25;33.50;;;;;2.78;64.94;102068.84;5036708;28;45500;-60
2023/01/21 08:06:04;;;;;;;;;37.50;26.75;;;;;2.65;64.64;102061.72;5036790;28;45319;-59
2023/01/21 08:08:30;;;;;;;;;46.50;36.00;;;;;2.73;64.89;102082.78;5051459;28;45476;-60
2023/01/21 08:10:56;;;;;;;;;41.00;37.40;;;;;2.75;65.29;102072.66;5036290;28;45263;-60
2023/01/21 08:13:22;;;;;;;;;48.00;38.50;;;;;2.75;65.01;102071.78;5035072;28;45369;-60
2023/01/21 08:15:54;;;;;;;;;52.75;41.75;;;;;2.70;64.66;102078.47;5052042;28;45260;-61
2023/01/21 08:18:21;;;;;;;;;39.60;33.80;;;;;2.75;65.29;102090.75;5035030;28;46217;-60
2023/01/21 08:20:47;;;;;;;;;34.60;30.20;;;;;2.79;64.85;102086.81;5035280;28;45450;-61
2023/01/21 08:23:12;;;;;;;;;55.00;40.00;;;;;2.82;64.81;102097.41;5035215;28;45474;-61
2023/01/21 08:25:38;;;;;;;;;36.00;31.50;;;;;2.67;65.07;102094.97;5051830;28;45737;-61
2023/01/21 08:28:04;;;;;;;;;40.50;35.75;;;;;1.84;64.94;101959.88;5051682;28;45937;-61
2023/01/21 08:30:29;;;;;;;;;44.00;35.00;;;;;2.69;65.27;102086.72;5036292;28;45456;-60
2023/01/21 08:32:55;;;;;;;;;53.00;40.25;;;;;2.62;64.94;102082.78;5034660;28;45342;-61
2023/01/21 08:35:20;;;;;;;;;51.50;41.25;;;;;2.64;64.80;102100.66;5036244;28;45676;-62
2023/01/21 08:37:46;;;;;;;;;32.75;25.25;;;;;2.55;64.95;102107.69;5021406;28;46111;-60
2023/01/21 08:40:12;;;;;;;;;41.50;36.00;;;;;2.41;65.18;102092.53;5025043;28;45384;-60
2023/01/21 08:42:37;;;;;;;;;35.25;34.00;;;;;2.49;65.19;102113.63;5036032;28;45443;-60
2023/01/21 08:45:04;;;;;;;;;52.00;41.00;;;;;2.41;65.49;102116.09;5014937;28;45724;-61
2023/01/21 08:47:31;;;;;;;;;44.20;39.40;;;;;2.38;65.58;102111.78;5015724;28;45749;-61
2023/01/21 08:49:56;;;;;;;;;48.20;41.00;;;;;2.47;65.90;102120.13;5014408;28;45533;-61
2023/01/21 08:52:22;;;;;;;;;44.25;39.75;;;;;2.48;65.07;102125.44;5031221;28;45294;-60
2023/01/21 08:54:47;;;;;;;;;52.50;44.00;;;;;2.33;65.28;102129.41;5016107;28;45530;-60
2023/01/21 08:57:13;;;;;;;;;43.00;37.75;;;;;2.36;65.45;102118.31;5015687;28;46647;-60
2023/01/21 08:59:38;;;;;;;;;54.00;41.00;;;;;2.42;65.63;102113.22;5015414;28;45385;-60
2023/01/21 09:02:04;;;;;;;;;45.25;35.75;;;;;2.61;65.23;102127.16;5015661;28;45209;-61
2023/01/21 09:04:30;;;;;;;;;47.00;40.75;;;;;2.73;64.74;102137.00;5016036;28;45327;-60
2023/01/21 09:06:55;;;;;;;;;39.00;36.25;;;;;2.48;64.73;102101.06;5031051;28;47636;-60
2023/01/21 09:09:21;;;;;;;;;47.25;37.25;;;;;2.68;64.72;102136.50;5015298;28;45481;-61
2023/01/21 09:11:46;;;;;;;;;54.25;42.75;;;;;2.63;64.64;102130.59;5015385;28;45462;-63
2023/01/21 09:14:14;;;;;;;;;46.75;40.00;;;;;2.71;64.59;102153.38;5028814;28;45398;-61
2023/01/21 09:16:40;;;;;;;;;52.25;41.00;;;;;2.65;64.23;102150.31;5041180;28;47335;-61
2023/01/21 09:19:05;;;;;;;;;46.25;40.25;;;;;2.65;64.71;102156.59;5012894;28;45561;-60
2023/01/21 09:21:33;;;;;;;;;54.00;44.00;;;;;2.47;64.40;102104.75;5011898;28;45398;-62
2023/01/21 09:23:59;;;;;;;;;51.50;38.75;;;;;2.81;64.13;102156.22;5011707;28;45565;-61
2023/01/21 09:26:24;;;;;;;;;55.25;43.25;;;;;2.88;64.14;102163.84;5013733;28;45453;-60
2023/01/21 09:29:02;;;;;;;;;51.25;41.50;;;;;2.81;64.03;102150.78;5028330;28;45363;-63
2023/01/21 09:31:29;;;;;;;;;55.80;43.80;;;;;2.84;64.18;102155.94;5012972;28;45441;-63
2023/01/21 09:34:00;;;;;;;;;49.00;44.50;;;;;2.97;63.72;102165.78;5012542;28;45565;-62
2023/01/21 09:36:27;;;;;;;;;36.75;26.50;;;;;2.81;63.73;102150.78;5028794;28;46418;-62
2023/01/21 09:38:53;;;;;;;;;49.00;39.80;;;;;2.89;63.26;102161.03;4995021;28;45441;-62
2023/01/21 09:41:24;;;;;;;;;49.00;41.00;;;;;2.85;63.57;102167.66;5013771;28;45584;-63
2023/01/21 09:44:03;;;;;;;;;52.75;41.00;;;;;2.71;63.74;102157.94;5028294;28;45829;-62
2023/01/21 09:47:02;;;;;;;;;48.00;36.25;;;;;2.70;64.04;102175.19;5028185;28;45604;-62
2023/01/21 09:49:48;;;;;;;;;50.20;40.00;;;;;2.80;64.07;102178.91;5024844;28;45564;-61
2023/01/21 09:52:30;;;;;;;;;57.50;45.00;;;;;2.69;63.57;102152.66;5015008;28;45434;-63
2023/01/21 09:54:55;;;;;;;;;63.25;44.25;;;;;2.84;64.10;102188.50;5033401;28;45361;-61
2023/01/21 09:57:53;;;;;;;;;58.00;46.00;;;;;2.85;63.74;102209.19;5013662;28;47185;-61
2023/01/21 10:00:28;;;;;;;;;46.80;39.60;;;;;2.55;63.40;102183.59;5012772;28;45782;-61
2023/01/21 10:03:03;;;;;;;;;48.00;40.00;;;;;2.69;63.82;102227.72;5033246;28;45470;-61
2023/01/21 10:05:44;;;;;;;;;48.00;39.50;;;;;2.71;63.71;102204.03;5031468;28;45409;-60
2023/01/21 10:08:17;;;;;;;;;49.75;41.25;;;;;2.79;64.02;102217.84;5030664;28;45821;-62
2023/01/21 10:10:58;;;;;;;;;48.00;39.80;;;;;2.90;64.00;102232.38;5032931;28;45448;-61
2023/01/21 10:13:36;;;;;;;;;56.00;43.50;;;;;2.95;63.56;102228.28;5015108;28;45644;-61
2023/01/21 10:16:16;;;;;;;;;48.75;42.50;;;;;2.91;63.24;102232.25;5044816;27;45589;-62
2023/01/21 10:18:44;;;;;;;;;55.00;41.50;;;;;2.98;63.23;102235.31;5052900;28;45608;-61
2023/01/21 10:21:18;;;;;;;;;49.00;42.40;;;;;2.98;63.22;102232.59;5019256;28;45326;-60
2023/01/21 10:23:53;;;;;;;;;52.50;43.25;;;;;2.98;63.61;102228.06;5014249;28;45453;-61
2023/01/21 10:26:19;;;;;;;;;44.75;40.00;;;;;3.03;62.70;102240.41;5011918;28;45483;-62
2023/01/21 10:28:49;;;;;;;;;45.75;40.25;;;;;2.90;62.90;102240.53;5032979;28;46178;-61
2023/01/21 10:31:27;;;;;;;;;52.25;43.50;;;;;2.95;63.26;102239.16;5044566;28;45475;-61
2023/01/21 10:33:52;;;;;;;;;58.00;44.75;;;;;3.02;62.36;102233.22;5036191;28;45377;-59
2023/01/21 10:36:33;;;;;;;;;42.75;35.25;;;;;3.05;63.19;102241.97;5038406;28;45399;-61
2023/01/21 10:39:37;;;;;;;;;48.00;39.50;;;;;3.10;62.91;102241.63;5025155;28;45753;-60
2023/01/21 10:42:05;;;;;;;;;42.40;37.00;;;;;3.19;62.94;102235.41;4988017;28;45475;-61
2023/01/21 10:45:14;;;;;;;;;45.40;38.00;;;;;2.99;62.04;102247.94;5047865;28;45321;-60
2023/01/21 10:48:11;;;;;;;;;46.25;38.75;;;;;2.98;62.93;102238.03;4954386;28;45778;-60
2023/01/21 10:51:00;;;;;;;;;49.75;39.50;;;;;2.56;62.60;102141.09;5003454;28;47694;-60
2023/01/21 10:53:52;;;;;;;;;57.20;41.80;;;;;3.28;62.69;102246.50;5034683;28;45437;-61
2023/01/21 10:56:47;;;;;;;;;42.00;40.40;;;;;3.41;62.63;102247.22;5034229;28;45536;-63
2023/01/21 10:59:25;;;;;;;;;32.00;29.25;;;;;3.31;62.32;102244.41;5038289;28;45499;-62
2023/01/21 11:01:59;;;;;;;;;47.00;39.50;;;;;3.39;61.38;102258.22;5003917;28;48587;-64
2023/01/21 11:04:24;;;;;;;;;40.60;37.00;;;;;3.42;61.83;102259.78;5042250;28;45582;-61
2023/01/21 11:06:58;;;;;;;;;54.50;40.50;;;;;3.52;61.30;102252.63;5017314;28;45512;-61
2023/01/21 11:09:24;;;;;;;;;44.25;33.00;;;;;3.45;61.19;102179.94;5042931;28;45821;-60
2023/01/21 11:11:49;;;;;;;;;41.80;37.20;;;;;3.89;60.71;102243.22;5034571;28;45571;-60
2023/01/21 11:14:15;;;;;;;;;45.75;39.25;;;;;4.03;60.41;102250.19;5041177;27;45447;-60
2023/01/21 11:16:42;;;;;;;;;40.75;30.50;;;;;4.22;59.96;102253.19;5051637;28;45541;-61
2023/01/21 11:19:30;;;;;;;;;41.00;33.20;;;;;4.10;59.92;102258.66;5034774;28;45441;-61
2023/01/21 11:22:23;;;;;;;;;40.60;34.00;;;;;4.17;59.51;102243.56;5051276;28;45749;-61
2023/01/21 11:24:51;;;;;;;;;44.60;37.40;;;;;4.32;59.51;102243.25;5047751;28;45826;-60
2023/01/21 11:27:31;;;;;;;;;49.80;39.80;;;;;4.51;59.25;102250.63;5017018;28;45454;-61
2023/01/21 11:29:56;;;;;;;;;39.00;32.25;;;;;4.61;58.88;102250.69;5050921;28;45839;-60
2023/01/21 11:32:23;;;;;;;;;38.00;33.00;;;;;4.45;58.45;102240.31;5031482;28;46785;-59